岡山グライダークラブ活動状況掲示板

岡山グライダークラブ
岡山市浦安南町639-1 岡南飛行場
 使用機:シャイベ式 SF25C型 ファルケ   JA2330
      ヴァレンティン式17E型 タイフーン  JA2342
 練習日:毎日曜日  クラブルーム:電話 086-265-1810
この掲示板は岡山グライダークラブの活動状況をお知らせする掲示板です。
!!!この掲示板は投稿規制をしています。!!!
クラブ関連各種情報は 岡山グライダークラブクラブルーム      を       .
  ブリーフイング情報は  岡山グライダークラブブリーフィングルーム  をご覧下さい。 .
※写真はクリックすると拡大して見ることが出来ます。
岡南飛行場へのアクセス等は 岡南飛行場管理事務所 をご覧ください。
クラブの ホームページ ができました。

!!!お待たせしました。新型コロナ感染症の感染が下火になったことから見学者等の受入を再開します。!!!
  注)なお、見学等の際には一般的な感染対策(マスク、ソーシャルディスタンス、黙食等)を順守してください。

 
10月16日
by OGC at 2022/10/16(日) 21:18:06 No.20221016211650  削除コメント
640 x 480 x 78,044バイト
No.1

10月16日
本日の参加者
  会員      14名
  その他     02名


@本日の様子






METAR
RJBK 160000Z VRB01KT 30KM FEW015CU 19/15 Q1019 A3009
RJOB 160000Z 04003KT 360V110 9999 FEW025 21/15 Q1019
RJOT 160000Z 07006KT 030V120 9999 FEW020 21/17 Q1019
RJOA 160000Z 09003KT 010V150 9999 FEW015 SCT025 19/16 Q1019
TAF
RJOB 152306Z 1600/1706 12004KT 9999 FEW025
     BECMG 1602/1604 16005KT
     BECMG 1612/1615 08004KT
     TEMPO 1618/1700 3000 -SHRA BR BCFG FEW000 SCT003 BKN007
RJOT 152305Z 1600/1706 04006KT 9999 FEW030
     BECMG 1615/1618 20005KT
RJOA 152307Z 1600/1706 12005KT 9999 FEW030
     BECMG 1602/1604 20005KT
     TEMPO 1615/1618 3000 -SHRA BR BCFG FEW000 SCT005 BKN008
     TEMPO 1618/1700 3000 SHRA BR BCFG FEW000 SCT005 BKN008

本日の天候は晴れで風も穏やかな訓練日和でした。
訓練生は実地試験の模擬訓練を行っていました。一方、ライセンサーは
上がる場所を探しにウロチョロしていました。


解散    17:30

1番機  11:35離陸 撤収機  17:10着陸 

SF25C JA2330 ファルケ     08Flt.3h10min  
17E   JA2342 タイフーン    00Flt.0h00min
合計                    08Flt.3h10min

    << 戻る || ホームページ || 最新の掲示板へ